Fountain Green, UT (84632)

02:18 MDT le 02 août 2015 (GMT -0600)
Skyline Mountain Resort Upper Mountain | | Change Station
CLOSE
Current Station
Stations météorologiques personnelles
Location: Fairview, UT
Altitude: 8327 ft
Stations météo à proximité

Alt. 8327 ft 39.62 °N, 111.37 °W | Updated 60 seconds ago

Ciel dégagé
Ciel dégagé
64.2 ° F
Paraît 64.2 ° F
N
0.0
Vent Variable Vent de SO
Gusts 0.0 mph

Aujourd'hui
Haut(e) -- | Bas -- ° F
--% Risque de précip.
Hier
Haut(e) -- | Bas -- ° F
Precip. -- pouce
6:26 AM 8:38 PM
Lune gibbeuse décroissante, 95% visible
Pression 29.82 pouce
Visibilité 10.0 Miles terrestres
Nuages Ciel dégagé
Point de rosée 45 ° F
Humidité 49%
Précipitations 0.00 pouce
Profondeur de la couche neigeuse Non disponible.
UV 0.0 sur 12
Pollen 6.60 sur 12
Qualité de l'air Non disponible.
Flu Activity Non disponible.
METAR KPUC 020753Z AUTO 08007KT 10SM CLR 23/07 A3015 RMK AO2 SLP097 T02280067 TSNO

More Conditions Fewer Conditions

Pression 29.82 pouce
Visibilité 10.0 Miles terrestres
Nuages Ciel dégagé
Point de rosée 45 ° F
Humidité 49%
Précipitations 0.00 pouce
Profondeur de la couche neigeuse Non disponible.
UV 0.0 sur 12
Pollen 6.60 sur 12
Qualité de l'air Non disponible.
Flu Activity Non disponible.
METAR KPUC 020753Z AUTO 08007KT 10SM CLR 23/07 A3015 RMK AO2 SLP097 T02280067 TSNO

More Conditions Fewer Conditions

10-Day Weather Forecast

×

Almanac

Astronomie

Aug. 02, 2015 Lever Coucher
Temps réel
Crépuscule civil
Crépuscule nautique
Crépuscule astronomique
Lune
Durée de lumière visible
Longueur du jour
Tomorrow will be .
, % of the Moon is Illuminated

Extrêmes aujourd'hui

State Highs State Lows

Community

WunderPhotos

Upload Photos

1,843,207 Photos téléchargées !

WunderBlogs® & News

Nearby

Qualité de l'air

  Qualité de l'air Indice de la qualité de l'air Polluant
Not available.

Épaisseur de neige

Station Depth Altitude

Activité sismique

Ville Distance Mag. Time & Date
Minimum magnitude displayed is 2.5.

Températures des eaux côtières

Lieu Température

Stations

Stations météo à proximité

Emplacement de la station Température Refroidissement éolien Point de rosée Humidité Vent Precip. Alt. Mise à jour Type